createdAt,value
2022-09-28T00:00:23.850Z,8.02
2022-09-28T00:02:57.660Z,8.07
2022-09-28T00:05:32.808Z,8.09
2022-09-28T00:07:59.673Z,8.13
2022-09-28T00:10:26.692Z,8.17
2022-09-28T00:12:57.208Z,8.18
2022-09-28T00:15:24.679Z,8.17
2022-09-28T00:18:01.498Z,8.19
2022-09-28T00:20:28.193Z,8.22
2022-09-28T00:22:58.070Z,8.22
2022-09-28T00:25:25.058Z,8.21
2022-09-28T00:27:53.655Z,8.23
2022-09-28T00:30:20.523Z,8.21
2022-09-28T00:32:47.198Z,8.21
2022-09-28T00:35:14.179Z,8.24
2022-09-28T00:37:40.949Z,8.25
2022-09-28T00:40:10.802Z,8.24
2022-09-28T00:42:37.522Z,8.23
2022-09-28T00:45:05.118Z,8.25
2022-09-28T00:47:52.055Z,8.21
2022-09-28T00:50:39.971Z,8.24
2022-09-28T00:53:21.506Z,8.20
2022-09-28T00:56:03.676Z,8.25
2022-09-28T00:58:38.411Z,8.26
2022-09-28T01:01:13.223Z,8.23
2022-09-28T01:03:48.581Z,8.23
2022-09-28T01:06:28.305Z,8.21
2022-09-28T01:09:03.065Z,8.24
2022-09-28T01:11:38.211Z,8.26
2022-09-28T01:14:11.898Z,8.25
2022-09-28T01:17:17.955Z,8.25
2022-09-28T01:20:15.384Z,8.27
2022-09-28T01:23:15.389Z,8.18
2022-09-28T01:26:11.869Z,8.21
2022-09-28T01:28:48.090Z,8.19
2022-09-28T01:31:21.490Z,8.20
2022-09-28T01:34:15.951Z,8.15
2022-09-28T01:37:01.593Z,8.16
2022-09-28T01:39:48.449Z,8.12
2022-09-28T01:42:27.660Z,8.11
2022-09-28T01:45:07.440Z,8.13
2022-09-28T01:47:40.951Z,8.10
2022-09-28T01:50:18.349Z,8.09
2022-09-28T01:53:09.699Z,8.04
2022-09-28T01:55:50.699Z,8.03
2022-09-28T01:58:46.027Z,8.03
2022-09-28T02:01:28.175Z,8.02
2022-09-28T02:04:16.983Z,8.02
2022-09-28T02:06:58.779Z,8.05
2022-09-28T02:09:47.143Z,8.02
2022-09-28T02:12:23.025Z,8.04
2022-09-28T02:15:01.898Z,8.06
2022-09-28T02:17:29.201Z,8.10
2022-09-28T02:19:56.223Z,8.09
2022-09-28T02:22:43.944Z,8.12
2022-09-28T02:25:24.863Z,8.13
2022-09-28T02:28:02.143Z,8.10
2022-09-28T02:30:38.209Z,8.13
2022-09-28T02:33:32.439Z,8.11
2022-09-28T02:36:01.501Z,8.06
2022-09-28T02:38:28.229Z,8.05
2022-09-28T02:42:02.717Z,8.05
2022-09-28T02:44:53.671Z,8.06
2022-09-28T02:48:16.052Z,8.02
2022-09-28T02:51:36.146Z,8.01
2022-09-28T02:54:21.357Z,7.98
2022-09-28T02:57:09.769Z,8.01
2022-09-28T03:00:17.695Z,7.99
2022-09-28T03:03:17.968Z,8.02
2022-09-28T03:06:29.586Z,7.98
2022-09-28T03:09:20.321Z,8.00
2022-09-28T03:11:56.783Z,7.98
2022-09-28T03:14:24.011Z,7.95
2022-09-28T03:16:51.048Z,7.99
2022-09-28T03:19:27.983Z,7.99
2022-09-28T03:21:55.599Z,7.96
2022-09-28T03:24:22.444Z,7.99
2022-09-28T03:26:49.219Z,7.97
2022-09-28T03:29:16.235Z,7.99
2022-09-28T03:31:44.122Z,8.01
2022-09-28T03:34:11.048Z,7.97
2022-09-28T03:36:37.820Z,7.94
2022-09-28T03:39:04.627Z,7.95
2022-09-28T03:41:31.357Z,7.98
2022-09-28T03:43:58.105Z,7.97
2022-09-28T03:46:24.943Z,7.93
2022-09-28T03:48:51.620Z,7.97
2022-09-28T03:51:18.306Z,7.92
2022-09-28T03:53:48.115Z,7.94
2022-09-28T03:56:16.082Z,7.90
2022-09-28T03:58:43.455Z,7.90
2022-09-28T04:01:17.524Z,7.87
2022-09-28T04:03:46.288Z,7.84
2022-09-28T04:06:14.480Z,7.81
2022-09-28T04:08:41.304Z,7.81
2022-09-28T04:11:08.022Z,7.84
2022-09-28T04:13:34.814Z,7.80
2022-09-28T04:16:02.450Z,7.83
2022-09-28T04:18:29.813Z,7.85
2022-09-28T04:21:19.598Z,7.84
2022-09-28T04:23:48.785Z,7.84
2022-09-28T04:26:30.406Z,7.87
2022-09-28T04:29:15.644Z,7.87
2022-09-28T04:31:49.612Z,7.88
2022-09-28T04:34:21.007Z,7.84
2022-09-28T04:36:49.386Z,7.77
2022-09-28T04:39:21.970Z,7.83
2022-09-28T04:41:49.573Z,7.83
2022-09-28T04:44:16.383Z,7.85
2022-09-28T04:46:43.994Z,7.84
2022-09-28T04:49:11.528Z,7.81
2022-09-28T04:51:38.226Z,7.74
2022-09-28T04:54:05.024Z,7.76
2022-09-28T04:56:31.704Z,7.75
2022-09-28T04:58:58.530Z,7.71
2022-09-28T05:36:35.675Z,7.61
2022-09-28T05:52:37.505Z,7.70
2022-09-28T05:55:09.529Z,7.68
2022-09-28T06:19:28.966Z,7.69
2022-09-28T06:27:18.331Z,7.72
2022-09-28T07:10:15.532Z,7.93
2022-09-28T07:53:38.592Z,7.96
2022-09-28T08:37:11.262Z,8.77
2022-09-28T08:39:38.273Z,8.78
2022-09-28T08:42:25.180Z,8.86
2022-09-28T08:44:59.011Z,8.88
2022-09-28T08:48:04.077Z,8.98
2022-09-28T08:50:38.691Z,8.99
2022-09-28T08:54:06.954Z,9.03
2022-09-28T08:57:04.487Z,8.99
2022-09-28T08:59:59.856Z,8.94
2022-09-28T09:02:39.476Z,8.89
2022-09-28T09:05:14.673Z,8.90
2022-09-28T09:08:37.357Z,8.83
2022-09-28T09:12:08.196Z,8.79
2022-09-28T09:15:32.272Z,8.78
2022-09-28T09:18:46.790Z,8.79
2022-09-28T09:22:03.102Z,8.89
2022-09-28T09:24:55.145Z,8.95
2022-09-28T09:28:17.315Z,9.00
2022-09-28T09:31:26.633Z,9.05
2022-09-28T09:34:35.662Z,9.10
2022-09-28T09:37:24.786Z,9.13
2022-09-28T09:40:44.640Z,9.30
2022-09-28T09:43:44.094Z,9.51
2022-09-28T09:46:36.957Z,9.59
2022-09-28T09:49:33.511Z,9.74
2022-09-28T09:52:42.292Z,9.89
2022-09-28T09:55:36.160Z,10.01
2022-09-28T09:58:21.746Z,10.11
2022-09-28T10:00:55.072Z,10.12
2022-09-28T10:03:30.512Z,10.07
2022-09-28T10:06:17.837Z,10.00
2022-09-28T10:09:01.372Z,10.05
2022-09-28T10:11:43.941Z,10.06
2022-09-28T10:14:27.918Z,10.06
2022-09-28T10:16:58.656Z,10.10
2022-09-28T10:19:35.185Z,10.01
2022-09-28T10:22:06.394Z,10.16
2022-09-28T10:24:47.309Z,10.11
2022-09-28T10:27:24.126Z,10.12
2022-09-28T10:30:44.074Z,10.09
2022-09-28T10:33:48.559Z,10.13
2022-09-28T10:36:17.947Z,10.16
2022-09-28T10:38:48.725Z,10.23
2022-09-28T10:41:20.113Z,10.23
2022-09-28T10:44:08.717Z,10.29
2022-09-28T10:46:39.153Z,10.19
2022-09-28T10:49:18.757Z,10.04
2022-09-28T10:51:56.534Z,9.96
2022-09-28T10:54:29.626Z,9.89
2022-09-28T10:57:00.884Z,9.80
2022-09-28T10:59:30.589Z,9.77
2022-09-28T11:02:25.989Z,9.63
2022-09-28T11:05:03.599Z,9.63
2022-09-28T11:07:44.594Z,9.68
2022-09-28T11:10:28.523Z,9.72
2022-09-28T11:12:56.894Z,9.74
2022-09-28T11:15:33.866Z,9.75
2022-09-28T11:18:32.343Z,9.90
2022-09-28T11:21:19.211Z,9.98
2022-09-28T11:24:20.259Z,10.05
2022-09-28T11:26:52.931Z,10.06
2022-09-28T11:29:57.679Z,10.02
2022-09-28T11:32:39.490Z,10.04
2022-09-28T11:35:07.318Z,10.12
2022-09-28T11:38:07.953Z,10.12
2022-09-28T11:41:02.487Z,10.09
2022-09-28T11:44:20.589Z,10.05
2022-09-28T11:47:51.541Z,10.26
2022-09-28T11:50:57.356Z,10.28
2022-09-28T11:53:48.937Z,10.30
2022-09-28T11:56:41.811Z,10.29
2022-09-28T11:59:31.853Z,10.30
2022-09-28T12:02:19.662Z,10.31
2022-09-28T12:04:51.163Z,10.31
2022-09-28T12:07:47.731Z,10.23
2022-09-28T12:10:51.350Z,10.30
2022-09-28T12:13:39.111Z,10.39
2022-09-28T12:17:05.055Z,10.40
2022-09-28T12:20:22.735Z,10.37
2022-09-28T12:23:15.068Z,10.33
2022-09-28T12:26:11.137Z,10.36
2022-09-28T12:29:26.932Z,10.36
2022-09-28T12:32:30.781Z,10.49
2022-09-28T13:57:31.136Z,13.85
2022-09-28T14:18:26.769Z,14.57
2022-09-28T14:22:13.446Z,14.32
2022-09-28T14:25:24.161Z,13.40
2022-09-28T14:28:30.554Z,12.92
2022-09-28T14:30:59.095Z,12.52
2022-09-28T14:33:32.060Z,12.19
2022-09-28T14:36:42.381Z,11.95
2022-09-28T14:39:50.550Z,11.76
2022-09-28T14:48:22.476Z,11.46
2022-09-28T14:50:52.911Z,11.42
2022-09-28T15:13:30.532Z,14.67
2022-09-28T15:16:17.573Z,14.86
2022-09-28T16:32:28.479Z,10.05
2022-09-28T16:43:43.405Z,9.54
2022-09-28T17:00:06.547Z,8.53
2022-09-28T17:02:46.295Z,8.33
2022-09-28T17:05:19.046Z,8.17
2022-09-28T17:08:03.848Z,8.08
2022-09-28T17:11:09.686Z,7.92
2022-09-28T17:13:35.950Z,7.78
2022-09-28T17:16:11.029Z,7.66
2022-09-28T17:35:23.595Z,7.07
2022-09-28T17:37:51.171Z,6.99
2022-09-28T17:43:12.294Z,6.91
2022-09-28T17:45:41.049Z,6.87
2022-09-28T17:56:31.687Z,6.70
2022-09-28T18:20:57.871Z,6.68
2022-09-28T18:31:37.587Z,6.58
2022-09-28T18:34:04.567Z,6.55
2022-09-28T18:36:35.630Z,6.56
2022-09-28T18:39:05.517Z,6.53
2022-09-28T18:49:45.934Z,6.36
2022-09-28T20:00:57.067Z,6.09
2022-09-28T20:06:17.067Z,6.06
2022-09-28T20:11:32.433Z,6.13
2022-09-28T20:16:46.478Z,6.11
2022-09-28T20:24:39.891Z,6.18
2022-09-28T20:27:08.974Z,6.17
2022-09-28T20:32:17.862Z,6.18
2022-09-28T20:34:48.510Z,6.24
2022-09-28T20:37:17.766Z,6.33
2022-09-28T20:39:46.294Z,6.46
2022-09-28T20:44:56.313Z,6.47
2022-09-28T20:50:12.021Z,6.44
2022-09-28T20:52:44.891Z,6.53
2022-09-28T20:55:15.639Z,6.59
2022-09-28T20:57:42.504Z,6.61
2022-09-28T21:00:12.638Z,6.57
2022-09-28T21:02:48.555Z,6.58
2022-09-28T21:05:34.508Z,6.54
2022-09-28T21:08:02.120Z,6.52
2022-09-28T21:10:32.973Z,6.44
2022-09-28T21:13:02.459Z,6.47
2022-09-28T21:15:32.801Z,6.49
2022-09-28T21:17:59.779Z,6.45
2022-09-28T21:20:32.153Z,6.39
2022-09-28T21:23:24.735Z,6.41
2022-09-28T21:26:15.260Z,6.57
2022-09-28T21:28:44.708Z,6.64
2022-09-28T21:31:12.938Z,6.70
2022-09-28T21:33:54.851Z,6.76
2022-09-28T21:36:27.375Z,6.81
2022-09-28T21:38:58.242Z,6.80
2022-09-28T22:05:53.070Z,7.06
2022-09-28T22:08:21.485Z,7.05
2022-09-28T22:11:13.160Z,7.03
2022-09-28T22:13:57.856Z,7.04
2022-09-28T22:16:29.562Z,7.02
2022-09-28T22:18:57.884Z,7.08
2022-09-28T22:21:34.162Z,7.07
2022-09-28T22:24:05.182Z,7.07
2022-09-28T22:26:35.080Z,7.03
2022-09-28T22:29:09.572Z,6.99
2022-09-28T22:31:40.969Z,7.01
2022-09-28T22:34:09.085Z,6.99
2022-09-28T22:36:36.268Z,6.99
2022-09-28T22:39:03.854Z,6.97
2022-09-28T22:41:31.802Z,6.97
2022-09-28T22:43:59.153Z,6.98
2022-09-28T22:46:31.946Z,6.95
2022-09-28T22:49:50.392Z,6.97
2022-09-28T22:52:17.527Z,6.97
2022-09-28T22:54:45.673Z,6.96
2022-09-28T22:57:12.471Z,6.94
2022-09-28T22:59:39.225Z,6.94
2022-09-28T23:02:06.414Z,6.92
2022-09-28T23:04:33.153Z,6.93
2022-09-28T23:06:59.851Z,6.94
2022-09-28T23:09:26.448Z,6.94
2022-09-28T23:11:53.090Z,6.91
2022-09-28T23:14:22.935Z,6.91
2022-09-28T23:16:49.770Z,6.93
2022-09-28T23:19:16.909Z,6.96
2022-09-28T23:21:43.682Z,6.94
2022-09-28T23:24:11.131Z,6.94
2022-09-28T23:26:37.771Z,6.95
2022-09-28T23:29:04.875Z,6.94
2022-09-28T23:31:33.226Z,6.98
2022-09-28T23:34:06.629Z,6.98
2022-09-28T23:36:34.800Z,6.99
2022-09-28T23:39:02.851Z,7.00
2022-09-28T23:41:30.071Z,6.99
2022-09-28T23:43:56.792Z,7.00
2022-09-28T23:46:23.614Z,7.01
2022-09-28T23:48:50.523Z,6.99
2022-09-28T23:51:17.410Z,6.99
2022-09-28T23:53:44.783Z,7.03
2022-09-28T23:56:12.389Z,7.02
2022-09-28T23:58:46.340Z,6.99
